createdAt,value
2019-03-20T00:01:53.856Z,31.10
2019-03-20T00:06:00.296Z,34.30
2019-03-20T00:10:04.145Z,38.33
2019-03-20T00:14:08.034Z,34.13
2019-03-20T00:18:12.252Z,30.07
2019-03-20T00:22:16.276Z,29.90
2019-03-20T00:26:20.207Z,35.17
2019-03-20T00:30:23.560Z,36.23
2019-03-20T00:34:26.955Z,34.53
2019-03-20T00:38:30.324Z,28.10
2019-03-20T00:42:35.531Z,32.73
2019-03-20T00:46:39.006Z,35.27
2019-03-20T00:50:42.927Z,31.87
2019-03-20T00:54:46.346Z,33.07
2019-03-20T00:58:50.155Z,30.50
2019-03-20T01:02:54.096Z,29.17
2019-03-20T01:06:57.733Z,33.73
2019-03-20T01:11:01.090Z,31.20
2019-03-20T01:15:05.447Z,38.20
2019-03-20T01:19:09.374Z,32.00
2019-03-20T01:23:13.583Z,37.53
2019-03-20T01:27:17.216Z,35.67
2019-03-20T01:31:21.108Z,42.60
2019-03-20T01:35:24.869Z,38.90
2019-03-20T01:39:28.218Z,43.00
2019-03-20T01:43:32.048Z,46.73
2019-03-20T01:47:35.851Z,42.00
2019-03-20T01:51:39.235Z,44.20
2019-03-20T01:55:42.602Z,44.17
2019-03-20T01:59:46.012Z,42.33
2019-03-20T02:03:49.451Z,46.63
2019-03-20T02:07:53.316Z,53.67
2019-03-20T02:11:56.984Z,53.83
2019-03-20T02:16:00.322Z,49.13
2019-03-20T02:20:03.936Z,48.80
2019-03-20T02:24:07.966Z,44.00
2019-03-20T02:28:11.871Z,47.00
2019-03-20T02:32:15.662Z,40.37
2019-03-20T02:36:19.062Z,45.97
2019-03-20T02:40:22.974Z,47.10
2019-03-20T02:44:26.780Z,43.13
2019-03-20T02:48:30.137Z,45.43
2019-03-20T02:52:33.518Z,54.13
2019-03-20T02:56:36.902Z,44.10
2019-03-20T03:00:41.130Z,44.43
2019-03-20T03:04:44.942Z,50.00
2019-03-20T03:08:48.329Z,48.80
2019-03-20T03:12:52.137Z,44.80
2019-03-20T03:16:55.872Z,44.43
2019-03-20T03:20:59.164Z,54.20
2019-03-20T03:25:02.902Z,45.67
2019-03-20T03:29:06.638Z,50.93
2019-03-20T03:33:10.227Z,47.83
2019-03-20T03:37:13.527Z,45.87
2019-03-20T03:41:16.814Z,50.97
2019-03-20T03:45:20.816Z,47.90
2019-03-20T03:49:24.106Z,50.87
2019-03-20T03:53:27.832Z,42.07
2019-03-20T03:57:31.701Z,44.67
2019-03-20T04:01:35.075Z,46.53
2019-03-20T04:05:39.025Z,42.23
2019-03-20T04:09:42.763Z,54.60
2019-03-20T04:13:46.052Z,42.20
2019-03-20T04:17:49.332Z,46.70
2019-03-20T04:21:52.641Z,43.10
2019-03-20T04:25:56.631Z,48.17
2019-03-20T04:29:59.990Z,48.07
2019-03-20T04:34:03.731Z,40.37
2019-03-20T04:38:07.447Z,48.90
2019-03-20T04:42:11.520Z,52.87
2019-03-20T04:46:14.814Z,50.23
2019-03-20T04:50:18.622Z,51.00
2019-03-20T04:54:22.347Z,47.70
2019-03-20T04:58:25.722Z,45.97
2019-03-20T05:02:29.238Z,43.23
2019-03-20T05:06:32.522Z,47.60
2019-03-20T05:10:35.822Z,48.77
2019-03-20T05:14:40.167Z,49.23
2019-03-20T05:18:43.463Z,44.90
2019-03-20T05:22:47.202Z,39.03
2019-03-20T05:26:50.658Z,46.97
2019-03-20T05:30:54.383Z,44.53
2019-03-20T05:34:58.110Z,45.70
2019-03-20T05:39:01.397Z,52.63
2019-03-20T05:43:05.374Z,52.13
2019-03-20T05:47:08.663Z,50.07
2019-03-20T05:51:12.390Z,55.07
2019-03-20T05:55:15.688Z,55.93
2019-03-20T05:59:18.972Z,49.27
2019-03-20T06:03:22.706Z,50.77
2019-03-20T06:07:26.002Z,50.80
2019-03-20T06:11:29.975Z,47.73
2019-03-20T06:15:33.266Z,51.47
2019-03-20T06:19:36.582Z,49.03
2019-03-20T06:23:39.868Z,50.60
2019-03-20T06:27:43.182Z,43.20
2019-03-20T06:31:47.043Z,56.53
2019-03-20T06:35:50.759Z,52.07
2019-03-20T06:39:54.071Z,46.63
2019-03-20T06:43:57.370Z,47.10
2019-03-20T06:48:01.108Z,46.43
2019-03-20T06:52:04.478Z,47.23
2019-03-20T06:56:08.215Z,49.93
2019-03-20T07:00:52.543Z,46.17
2019-03-20T07:05:34.958Z,45.30
2019-03-20T07:10:05.955Z,48.47
2019-03-20T07:14:09.242Z,49.13
2019-03-20T07:18:12.546Z,49.27
2019-03-20T07:22:15.850Z,57.13
2019-03-20T07:26:19.158Z,49.77
2019-03-20T07:30:22.957Z,43.33
2019-03-20T07:34:26.254Z,44.67
2019-03-20T07:38:30.268Z,49.07
2019-03-20T07:42:34.010Z,52.83
2019-03-20T07:46:37.328Z,45.20
2019-03-20T07:50:40.674Z,48.73
2019-03-20T07:54:44.003Z,45.90
2019-03-20T07:58:47.282Z,58.83
2019-03-20T08:02:50.579Z,49.67
2019-03-20T08:06:54.310Z,46.40
2019-03-20T08:10:57.613Z,51.60
2019-03-20T08:15:01.331Z,51.07
2019-03-20T08:19:05.145Z,60.30
2019-03-20T08:23:08.430Z,43.87
2019-03-20T08:27:11.734Z,48.10
2019-03-20T08:31:15.506Z,46.17
2019-03-20T08:35:19.112Z,46.83
2019-03-20T08:39:22.899Z,47.80
2019-03-20T08:43:26.182Z,43.43
2019-03-20T08:47:29.556Z,51.07
2019-03-20T08:51:32.847Z,42.50
2019-03-20T08:55:36.570Z,46.70
2019-03-20T08:59:45.190Z,44.90
2019-03-20T09:03:49.162Z,43.03
2019-03-20T09:07:52.538Z,45.10
2019-03-20T09:11:56.291Z,45.97
2019-03-20T09:15:59.676Z,54.03
2019-03-20T09:20:03.298Z,50.97
2019-03-20T09:24:06.734Z,49.03
2019-03-20T09:28:10.098Z,52.67
2019-03-20T09:32:13.475Z,48.23
2019-03-20T09:36:16.833Z,45.20
2019-03-20T09:40:20.352Z,50.40
2019-03-20T09:44:23.634Z,50.30
2019-03-20T09:48:27.019Z,44.27
2019-03-20T09:52:30.308Z,50.20
2019-03-20T09:56:34.178Z,50.03
2019-03-20T10:00:37.552Z,51.30
2019-03-20T10:04:40.851Z,55.10
2019-03-20T10:08:53.773Z,55.67
2019-03-20T10:12:49.437Z,48.13
2019-03-20T10:16:52.850Z,47.10
2019-03-20T10:20:56.567Z,50.07
2019-03-20T10:24:59.885Z,49.03
2019-03-20T10:29:03.326Z,48.37
2019-03-20T10:33:07.327Z,48.50
2019-03-20T10:37:10.781Z,53.13
2019-03-20T10:41:14.122Z,53.10
2019-03-20T10:45:17.984Z,52.37
2019-03-20T10:49:21.324Z,55.27
2019-03-20T10:53:24.718Z,50.83
2019-03-20T10:57:28.559Z,51.30
2019-03-20T11:01:42.197Z,54.50
2019-03-20T11:05:37.677Z,56.37
2019-03-20T11:09:41.022Z,55.87
2019-03-20T11:13:44.448Z,59.93
2019-03-20T11:17:47.791Z,51.30
2019-03-20T11:21:51.157Z,54.80
2019-03-20T11:25:54.586Z,64.67
2019-03-20T11:29:58.443Z,63.27
2019-03-20T11:34:02.357Z,59.20
2019-03-20T11:38:05.801Z,59.80
2019-03-20T11:42:09.508Z,54.30
2019-03-20T11:46:12.861Z,56.53
2019-03-20T11:50:20.846Z,57.63
2019-03-20T11:54:24.657Z,64.80
2019-03-20T11:58:27.987Z,49.33
2019-03-20T12:02:31.858Z,57.40
2019-03-20T12:06:35.688Z,56.97
2019-03-20T12:10:39.127Z,60.23
2019-03-20T12:14:42.511Z,65.80
2019-03-20T12:18:46.125Z,55.37
2019-03-20T12:22:50.324Z,54.07
2019-03-20T12:26:54.294Z,52.43
2019-03-20T12:30:57.656Z,60.10
2019-03-20T12:35:01.044Z,57.00
2019-03-20T12:39:08.376Z,60.73
2019-03-20T12:43:11.739Z,63.20
2019-03-20T12:47:15.062Z,58.87
2019-03-20T12:51:18.392Z,52.40
2019-03-20T12:55:22.521Z,51.97
2019-03-20T12:59:25.848Z,58.40
2019-03-20T13:03:30.689Z,56.37
2019-03-20T13:07:34.356Z,54.37
2019-03-20T13:11:38.259Z,60.03
2019-03-20T13:15:41.610Z,55.43
2019-03-20T13:19:45.678Z,57.00
2019-03-20T13:23:49.757Z,56.00
2019-03-20T13:27:53.505Z,54.60
2019-03-20T13:31:56.881Z,56.17
2019-03-20T13:36:00.219Z,63.67
2019-03-20T13:40:13.584Z,60.50
2019-03-20T13:44:09.205Z,55.73
2019-03-20T13:48:12.554Z,58.47
2019-03-20T13:52:15.846Z,57.27
2019-03-20T13:56:19.286Z,53.27
2019-03-20T14:00:23.295Z,56.93
2019-03-20T14:04:27.065Z,52.73
2019-03-20T14:08:30.781Z,52.87
2019-03-20T14:12:34.078Z,54.27
2019-03-20T14:16:37.812Z,48.37
2019-03-20T14:20:41.090Z,51.43
2019-03-20T14:24:44.386Z,50.53
2019-03-20T14:28:47.666Z,54.00
2019-03-20T14:32:50.959Z,57.00
2019-03-20T14:36:54.290Z,48.63
2019-03-20T14:40:58.015Z,50.07
2019-03-20T14:45:01.301Z,46.73
2019-03-20T14:49:05.186Z,53.90
2019-03-20T14:53:08.493Z,47.90
2019-03-20T14:57:11.866Z,49.13
2019-03-20T15:01:15.688Z,45.60
2019-03-20T15:05:18.982Z,46.27
2019-03-20T15:09:22.266Z,38.23
2019-03-20T15:13:25.610Z,45.73
2019-03-20T15:17:28.958Z,34.37
2019-03-20T15:21:32.308Z,47.53
2019-03-20T15:25:36.210Z,42.27
2019-03-20T15:29:39.566Z,45.93
2019-03-20T15:33:43.522Z,43.13
2019-03-20T15:37:47.018Z,43.70
2019-03-20T15:41:50.364Z,48.73
2019-03-20T15:45:53.726Z,48.00
2019-03-20T15:49:57.048Z,59.27
2019-03-20T15:54:00.405Z,47.60
2019-03-20T15:58:04.066Z,41.47
2019-03-20T16:02:07.845Z,55.00
2019-03-20T16:06:11.232Z,41.30
2019-03-20T16:10:16.054Z,48.47
2019-03-20T16:14:19.386Z,48.00
2019-03-20T16:18:23.272Z,49.70
2019-03-20T16:22:27.353Z,48.70
2019-03-20T16:26:30.692Z,45.00
2019-03-20T16:30:34.138Z,48.33
2019-03-20T16:34:37.522Z,47.80
2019-03-20T16:38:41.406Z,44.10
2019-03-20T16:42:44.794Z,46.60
2019-03-20T16:46:48.174Z,52.03
2019-03-20T16:50:51.606Z,49.13
2019-03-20T16:54:54.966Z,51.53
2019-03-20T16:58:58.885Z,45.70
2019-03-20T17:03:02.403Z,44.37
2019-03-20T17:07:05.721Z,43.93
2019-03-20T17:11:09.646Z,48.80
2019-03-20T17:15:14.751Z,46.13
2019-03-20T17:19:18.136Z,39.13
2019-03-20T17:23:21.553Z,42.07
2019-03-20T17:27:24.912Z,53.70
2019-03-20T17:31:28.242Z,50.13
2019-03-20T17:35:32.116Z,47.37
2019-03-20T17:39:35.554Z,43.73
2019-03-20T17:43:39.308Z,41.97
2019-03-20T17:47:43.229Z,47.20
2019-03-20T17:51:46.876Z,46.57
2019-03-20T17:55:50.471Z,54.77
2019-03-20T17:59:53.882Z,45.23
2019-03-20T18:03:58.110Z,47.60
2019-03-20T18:08:01.419Z,46.83
2019-03-20T18:12:04.831Z,46.23
2019-03-20T18:16:08.304Z,42.70
2019-03-20T18:20:12.939Z,51.10
2019-03-20T18:24:16.836Z,45.37
2019-03-20T18:28:21.745Z,46.67
2019-03-20T18:32:25.467Z,45.70
2019-03-20T18:36:29.282Z,41.87
2019-03-20T18:40:32.648Z,45.03
2019-03-20T18:44:36.175Z,40.70
2019-03-20T18:48:39.523Z,52.73
2019-03-20T18:52:43.133Z,50.77
2019-03-20T18:56:46.602Z,55.53
2019-03-20T19:00:50.156Z,49.40
2019-03-20T19:04:53.740Z,45.70
2019-03-20T19:08:57.309Z,53.40
2019-03-20T19:13:00.893Z,52.37
2019-03-20T19:17:04.373Z,58.70
2019-03-20T19:21:08.020Z,50.83
2019-03-20T19:25:12.556Z,62.67
2019-03-20T19:29:16.091Z,61.10
2019-03-20T19:33:19.451Z,60.87
2019-03-20T19:37:22.807Z,56.57
2019-03-20T19:41:26.296Z,54.73
2019-03-20T19:45:30.455Z,52.10
2019-03-20T19:49:34.277Z,54.57
2019-03-20T19:53:37.659Z,55.43
2019-03-20T19:57:41.085Z,50.93
2019-03-20T20:01:44.464Z,59.77
2019-03-20T20:05:47.865Z,63.20
2019-03-20T20:09:51.643Z,53.27
2019-03-20T20:13:55.072Z,52.80
2019-03-20T20:17:58.573Z,57.67
2019-03-20T20:22:02.108Z,58.93
2019-03-20T20:26:05.588Z,62.13
2019-03-20T20:30:11.108Z,57.77
2019-03-20T20:34:14.787Z,65.43
2019-03-20T20:38:18.594Z,56.00
2019-03-20T20:42:22.745Z,61.13
2019-03-20T20:46:26.183Z,60.93
2019-03-20T20:50:29.565Z,57.87
2019-03-20T20:54:32.974Z,57.80
2019-03-20T20:58:36.323Z,52.30
2019-03-20T21:02:40.112Z,45.87
2019-03-20T21:06:43.612Z,43.63
2019-03-20T21:10:47.041Z,40.73
2019-03-20T21:14:50.563Z,42.10
2019-03-20T21:19:34.785Z,38.83
2019-03-20T21:24:14.972Z,42.53
2019-03-20T21:28:56.296Z,35.20
2019-03-20T21:33:00.007Z,37.87
2019-03-20T21:37:54.500Z,40.53
2019-03-20T21:42:32.227Z,41.73
2019-03-20T21:46:47.748Z,43.67
2019-03-20T21:51:23.826Z,43.70
2019-03-20T21:56:11.770Z,48.87
2019-03-20T22:00:33.360Z,47.17
2019-03-20T22:04:38.819Z,47.40
2019-03-20T22:08:43.619Z,45.80
2019-03-20T22:13:00.988Z,46.63
2019-03-20T22:17:50.267Z,43.60
2019-03-20T22:22:08.819Z,46.40
2019-03-20T22:26:23.947Z,53.13
2019-03-20T22:30:27.644Z,46.67
2019-03-20T22:34:52.300Z,47.40
2019-03-20T22:39:39.196Z,57.73
2019-03-20T22:43:47.602Z,57.93
2019-03-20T22:48:09.208Z,45.40
2019-03-20T22:52:33.271Z,55.43
2019-03-20T22:57:30.740Z,46.07
2019-03-20T23:01:39.217Z,52.60
2019-03-20T23:05:42.848Z,55.47
2019-03-20T23:09:46.521Z,79.57
2019-03-20T23:13:50.140Z,76.20
2019-03-20T23:17:53.967Z,74.33
2019-03-20T23:21:57.655Z,91.63
2019-03-20T23:26:01.259Z,78.63
2019-03-20T23:30:06.966Z,95.93
2019-03-20T23:34:11.437Z,89.30
2019-03-20T23:38:15.751Z,93.73
2019-03-20T23:42:19.849Z,90.40
2019-03-20T23:46:24.582Z,75.20
2019-03-20T23:50:28.213Z,85.03
2019-03-20T23:54:33.777Z,95.77
2019-03-20T23:58:38.104Z,116.03
